createdAt,value
2022-10-11T04:01:55.232Z,99474.88
2022-10-11T04:06:07.743Z,99476.16
2022-10-11T04:10:20.696Z,99467.97
2022-10-11T04:14:32.225Z,99481.81
2022-10-11T04:18:43.715Z,99485.22
2022-10-11T04:22:55.197Z,99493.53
2022-10-11T04:27:06.704Z,99488.09
2022-10-11T04:31:18.211Z,99500.09
2022-10-11T04:35:29.795Z,99497.56
2022-10-11T04:39:41.302Z,99499.88
2022-10-11T04:43:52.784Z,99504.72
2022-10-11T04:48:04.402Z,99510.84
2022-10-11T04:52:15.895Z,99511.97
2022-10-11T04:56:27.603Z,99513.41
2022-10-11T05:00:39.087Z,99512.16
2022-10-11T05:04:51.109Z,99512.38
2022-10-11T05:09:02.651Z,99512.44
2022-10-11T05:13:14.141Z,99517.09
2022-10-11T05:17:25.658Z,99512.00
2022-10-11T05:21:37.155Z,99519.84
2022-10-11T05:25:48.651Z,99524.66
2022-10-11T05:30:00.143Z,99519.72
2022-10-11T05:34:11.637Z,99536.38
2022-10-11T05:38:23.795Z,99545.56
2022-10-11T05:42:35.279Z,99549.19
2022-10-11T05:46:46.837Z,99556.00
2022-10-11T05:51:03.341Z,99556.81
2022-10-11T05:55:14.936Z,99564.75
2022-10-11T05:59:26.572Z,99566.16
2022-10-11T06:03:38.068Z,99566.44
2022-10-11T06:07:49.569Z,99571.47
2022-10-11T06:12:01.516Z,99582.13
2022-10-11T06:16:13.576Z,99582.94
2022-10-11T06:20:26.090Z,99580.63
2022-10-11T06:24:37.709Z,99590.72
2022-10-11T06:28:49.348Z,99591.25
2022-10-11T06:33:04.633Z,99598.41
2022-10-11T06:37:16.480Z,99610.25
2022-10-11T06:41:30.360Z,99615.41
2022-10-11T06:45:41.857Z,99620.28
2022-10-11T06:49:53.352Z,99640.88
2022-10-11T06:54:05.264Z,99646.41
2022-10-11T06:58:16.773Z,99662.44
2022-10-11T07:02:28.386Z,99662.84
2022-10-11T07:06:41.395Z,99664.94
2022-10-11T07:10:53.041Z,99664.63
2022-10-11T07:15:05.641Z,99664.94
2022-10-11T07:19:17.203Z,99671.72
2022-10-11T07:23:28.725Z,99668.97
2022-10-11T07:27:40.284Z,99666.97
2022-10-11T07:31:51.812Z,99664.41
2022-10-11T07:36:05.552Z,99675.84
2022-10-11T07:40:17.298Z,99673.47
2022-10-11T07:44:28.860Z,99664.91
2022-10-11T07:48:40.627Z,99670.94
2022-10-11T07:52:52.202Z,99674.47
2022-10-11T07:57:03.808Z,99677.97
2022-10-11T08:01:15.468Z,99666.91
2022-10-11T08:05:29.961Z,99674.31
2022-10-11T08:09:41.544Z,99682.34
2022-10-11T08:13:53.134Z,99681.38
2022-10-11T08:18:04.660Z,99682.53
2022-10-11T08:22:16.233Z,99689.03
2022-10-11T08:26:27.838Z,99682.44
2022-10-11T08:30:39.381Z,99683.94
2022-10-11T08:34:50.879Z,99687.09
2022-10-11T08:39:02.549Z,99687.72
2022-10-11T08:43:40.163Z,99692.72
2022-10-11T08:48:01.197Z,99690.22
2022-10-11T08:52:20.458Z,99698.50
2022-10-11T08:56:36.637Z,99689.00
2022-10-11T09:00:53.211Z,99688.78
2022-10-11T09:05:05.435Z,99691.09
2022-10-11T09:09:25.940Z,99687.72
2022-10-11T09:14:03.214Z,99691.34
2022-10-11T09:18:29.890Z,99685.72
2022-10-11T09:22:43.026Z,99685.19
2022-10-11T09:27:01.503Z,99678.34
2022-10-11T09:31:13.098Z,99682.38
2022-10-11T09:35:24.908Z,99675.84
2022-10-11T09:39:41.616Z,99680.56
2022-10-11T09:43:53.237Z,99683.78
2022-10-11T09:48:07.308Z,99680.44
2022-10-11T09:52:22.841Z,99690.63
2022-10-11T09:56:42.091Z,99687.63
2022-10-11T10:01:21.694Z,99684.50
2022-10-11T10:05:36.870Z,99682.63
2022-10-11T10:09:49.675Z,99693.25
2022-10-11T10:14:01.396Z,99698.44
2022-10-11T10:18:36.694Z,99696.00
2022-10-11T10:22:49.146Z,99682.59
2022-10-11T10:27:21.391Z,99680.13
2022-10-11T10:36:35.218Z,99682.84
2022-10-11T10:40:52.720Z,99681.69
2022-10-11T10:45:11.888Z,99672.75
2022-10-11T10:49:58.811Z,99686.81
2022-10-11T10:54:52.320Z,99678.06
2022-10-11T10:59:29.962Z,99670.84
2022-10-11T11:03:45.912Z,99669.47
2022-10-11T11:08:04.048Z,99657.53
2022-10-11T11:12:24.682Z,99660.47
2022-10-11T11:16:45.984Z,99664.06
2022-10-11T11:21:28.355Z,99658.28
2022-10-11T11:25:48.214Z,99651.97
2022-10-11T11:30:13.874Z,99652.63
2022-10-11T11:34:37.865Z,99644.47
2022-10-11T11:38:56.665Z,99651.50
2022-10-11T11:43:20.537Z,99633.19
2022-10-11T11:47:42.413Z,99628.16
2022-10-11T11:51:55.036Z,99639.41
2022-10-11T11:56:17.596Z,99628.00
2022-10-11T12:00:40.377Z,99622.97
2022-10-11T12:04:52.988Z,99616.50
2022-10-11T12:09:07.500Z,99615.00
2022-10-11T12:13:32.129Z,99619.59
2022-10-11T12:17:53.038Z,99601.41
2022-10-11T12:22:27.625Z,99602.03
2022-10-11T12:26:44.631Z,99603.13
2022-10-11T12:31:05.334Z,99591.16
2022-10-11T12:35:32.446Z,99586.25
2022-10-11T12:39:49.296Z,99575.94
2022-10-11T12:44:24.696Z,99571.19
2022-10-11T12:48:40.746Z,99573.09
2022-10-11T12:53:12.063Z,99569.78
2022-10-11T12:58:01.205Z,99567.31
2022-10-11T13:02:39.037Z,99569.81
2022-10-11T13:06:55.150Z,99572.50
2022-10-11T13:11:10.701Z,99563.59
2022-10-11T13:15:24.362Z,99565.22
2022-10-11T13:19:37.815Z,99557.41
2022-10-11T13:23:49.438Z,99557.06
2022-10-11T13:28:00.936Z,99557.34
2022-10-11T13:32:16.507Z,99549.59
2022-10-11T13:36:28.588Z,99548.97
2022-10-11T13:40:40.132Z,99546.31
2022-10-11T13:44:51.901Z,99544.03
2022-10-11T13:49:23.345Z,99542.88
2022-10-11T13:53:35.124Z,99539.06
2022-10-11T13:57:49.400Z,99533.06
2022-10-11T14:02:04.251Z,99543.59
2022-10-11T14:06:15.759Z,99540.25
2022-10-11T14:10:28.268Z,99541.63
2022-10-11T14:14:42.623Z,99538.13
2022-10-11T14:19:08.436Z,99540.69
2022-10-11T14:23:19.922Z,99545.22
2022-10-11T14:27:31.578Z,99538.31
2022-10-11T14:31:43.457Z,99538.25
2022-10-11T14:35:55.072Z,99538.75
2022-10-11T14:40:18.508Z,99537.56
2022-10-11T14:44:30.061Z,99534.41
2022-10-11T14:48:54.859Z,99531.41
2022-10-11T14:53:08.081Z,99536.66
2022-10-11T14:57:19.597Z,99534.31
2022-10-11T15:01:31.275Z,99535.56
2022-10-11T15:05:42.860Z,99538.38
2022-10-11T15:09:54.404Z,99534.44
2022-10-11T15:14:06.558Z,99526.66
2022-10-11T15:18:18.535Z,99527.22
2022-10-11T15:22:30.367Z,99527.41
2022-10-11T15:26:42.268Z,99530.81
2022-10-11T15:30:54.300Z,99520.94
2022-10-11T15:35:06.600Z,99523.72
2022-10-11T15:39:33.882Z,99516.84
2022-10-11T15:43:48.008Z,99513.44
2022-10-11T15:47:59.885Z,99510.81
2022-10-11T15:52:11.521Z,99512.00
2022-10-11T15:56:23.035Z,99515.88
2022-10-11T16:00:34.516Z,99516.72
2022-10-11T16:04:46.002Z,99520.66
2022-10-11T16:08:57.528Z,99512.44
2022-10-11T16:13:10.285Z,99514.75
2022-10-11T16:17:21.771Z,99519.69
2022-10-11T16:21:33.316Z,99515.28
2022-10-11T16:25:45.002Z,99524.06
2022-10-11T16:29:56.603Z,99525.13
2022-10-11T16:34:08.126Z,99528.13
2022-10-11T16:38:19.634Z,99521.22
2022-10-11T16:42:31.420Z,99534.03
2022-10-11T16:46:44.925Z,99531.44
2022-10-11T16:51:05.153Z,99540.13
2022-10-11T16:55:16.714Z,99544.91
2022-10-11T16:59:28.253Z,99540.97
2022-10-11T17:03:39.825Z,99550.94
2022-10-11T17:07:51.316Z,99545.03
2022-10-11T17:12:02.995Z,99547.66
2022-10-11T17:16:15.555Z,99540.94
2022-10-11T17:20:27.092Z,99539.59
2022-10-11T17:24:38.723Z,99552.03
2022-10-11T17:28:50.591Z,99557.22
2022-10-11T17:33:02.150Z,99552.94
2022-10-11T17:37:13.921Z,99558.00
2022-10-11T17:41:30.895Z,99561.06
2022-10-11T17:45:43.475Z,99558.41
2022-10-11T17:49:54.948Z,99562.28
2022-10-11T17:54:06.756Z,99561.28
2022-10-11T17:58:18.365Z,99561.59
2022-10-11T18:02:29.950Z,99562.59
2022-10-11T18:06:41.476Z,99564.47
2022-10-11T18:10:52.980Z,99566.56
2022-10-11T18:15:04.697Z,99565.69
2022-10-11T18:19:16.356Z,99563.06
2022-10-11T18:23:27.869Z,99563.00
2022-10-11T18:27:39.464Z,99561.00
2022-10-11T18:31:50.985Z,99558.94
2022-10-11T18:36:05.406Z,99556.19
2022-10-11T18:40:17.262Z,99556.88
2022-10-11T18:44:28.788Z,99567.94
2022-10-11T18:48:42.029Z,99567.66
2022-10-11T18:52:53.638Z,99568.75
2022-10-11T18:57:05.196Z,99566.91
2022-10-11T19:01:22.694Z,99573.00
2022-10-11T19:05:34.282Z,99575.78
2022-10-11T19:09:49.030Z,99564.34
2022-10-11T19:14:07.268Z,99568.66
2022-10-11T19:18:31.001Z,99565.00
2022-10-11T19:22:48.966Z,99572.31
2022-10-11T19:27:03.020Z,99571.09
2022-10-11T19:31:18.839Z,99567.59
2022-10-11T19:35:33.632Z,99570.06
2022-10-11T19:39:50.322Z,99585.31
2022-10-11T19:44:02.330Z,99579.44
2022-10-11T19:48:14.255Z,99578.63
2022-10-11T19:52:26.974Z,99576.03
2022-10-11T19:56:38.969Z,99583.34
2022-10-11T20:05:53.367Z,99577.34
2022-10-11T20:10:35.455Z,99580.84
2022-10-11T20:14:58.101Z,99581.28
2022-10-11T20:19:34.590Z,99585.50
2022-10-11T20:24:01.595Z,99593.50
2022-10-11T20:28:13.462Z,99582.78
2022-10-11T20:32:25.061Z,99583.22
2022-10-11T20:36:40.003Z,99588.56
2022-10-11T20:40:51.546Z,99590.06
2022-10-11T20:45:03.292Z,99591.72
2022-10-11T20:49:14.902Z,99587.84
2022-10-11T20:59:27.105Z,99583.06
2022-10-11T21:03:38.822Z,99582.13
2022-10-11T21:08:01.082Z,99585.00
2022-10-11T21:13:33.663Z,99583.25
